sensor_id;sensor_type;location;lat;lon;timestamp;pressure;altitude;pressure_sealevel;temperature;humidity
16821;BME280;8527;49.740;6.604;2022-09-09T00:00:23;99194.84;;;15.80;97.80
16821;BME280;8527;49.740;6.604;2022-09-09T00:05:29;99187.13;;;15.65;99.16
16821;BME280;8527;49.740;6.604;2022-09-09T00:10:36;99181.81;;;15.58;98.80
16821;BME280;8527;49.740;6.604;2022-09-09T00:15:42;99174.22;;;15.55;98.99
16821;BME280;8527;49.740;6.604;2022-09-09T00:20:49;99168.28;;;15.46;99.26
16821;BME280;8527;49.740;6.604;2022-09-09T00:26:04;99174.28;;;15.42;99.87
16821;BME280;8527;49.740;6.604;2022-09-09T00:31:11;99180.28;;;15.37;98.80
16821;BME280;8527;49.740;6.604;2022-09-09T00:36:13;99177.19;;;15.40;100.00
16821;BME280;8527;49.740;6.604;2022-09-09T00:41:21;99183.00;;;15.30;100.00
16821;BME280;8527;49.740;6.604;2022-09-09T00:46:40;99198.63;;;15.27;100.00
16821;BME280;8527;49.740;6.604;2022-09-09T00:51:46;99194.63;;;15.50;100.00
16821;BME280;8527;49.740;6.604;2022-09-09T00:57:06;99197.63;;;15.60;100.00
16821;BME280;8527;49.740;6.604;2022-09-09T01:02:16;99202.06;;;15.73;100.00
16821;BME280;8527;49.740;6.604;2022-09-09T01:07:21;99204.91;;;15.78;100.00
16821;BME280;8527;49.740;6.604;2022-09-09T01:12:32;99210.00;;;15.86;100.00
16821;BME280;8527;49.740;6.604;2022-09-09T01:17:35;99214.94;;;15.89;100.00
16821;BME280;8527;49.740;6.604;2022-09-09T01:22:42;99207.75;;;15.90;100.00
16821;BME280;8527;49.740;6.604;2022-09-09T01:27:51;99205.22;;;15.95;100.00
16821;BME280;8527;49.740;6.604;2022-09-09T01:32:56;99211.03;;;15.92;100.00
16821;BME280;8527;49.740;6.604;2022-09-09T01:38:05;99218.03;;;15.86;100.00
16821;BME280;8527;49.740;6.604;2022-09-09T01:43:09;99220.72;;;15.86;100.00
16821;BME280;8527;49.740;6.604;2022-09-09T01:48:08;99220.91;;;15.92;99.42
16821;BME280;8527;49.740;6.604;2022-09-09T01:53:06;99209.38;;;15.91;100.00
16821;BME280;8527;49.740;6.604;2022-09-09T01:58:20;99205.22;;;15.95;99.58
16821;BME280;8527;49.740;6.604;2022-09-09T02:03:26;99205.03;;;15.97;99.57
16821;BME280;8527;49.740;6.604;2022-09-09T02:08:34;99190.22;;;15.94;100.00
16821;BME280;8527;49.740;6.604;2022-09-09T02:13:39;99191.22;;;16.00;99.20
16821;BME280;8527;49.740;6.604;2022-09-09T02:18:54;99198.44;;;15.99;99.49
16821;BME280;8527;49.740;6.604;2022-09-09T02:23:59;99183.34;;;16.05;99.33
16821;BME280;8527;49.740;6.604;2022-09-09T02:29:07;99189.66;;;16.11;100.00
16821;BME280;8527;49.740;6.604;2022-09-09T02:34:07;99181.44;;;16.12;99.34
16821;BME280;8527;49.740;6.604;2022-09-09T02:39:08;99197.28;;;16.14;99.06
16821;BME280;8527;49.740;6.604;2022-09-09T02:44:17;99184.94;;;16.13;99.24
16821;BME280;8527;49.740;6.604;2022-09-09T02:49:28;99184.88;;;16.20;98.97
16821;BME280;8527;49.740;6.604;2022-09-09T02:54:37;99180.13;;;16.22;98.78
16821;BME280;8527;49.740;6.604;2022-09-09T02:59:44;99172.69;;;16.24;99.17
16821;BME280;8527;49.740;6.604;2022-09-09T03:04:45;99182.56;;;16.23;98.94
16821;BME280;8527;49.740;6.604;2022-09-09T03:09:47;99175.97;;;16.26;98.53
16821;BME280;8527;49.740;6.604;2022-09-09T03:14:48;99180.88;;;16.29;98.75
16821;BME280;8527;49.740;6.604;2022-09-09T03:19:51;99191.16;;;16.32;98.33
16821;BME280;8527;49.740;6.604;2022-09-09T03:24:50;99177.38;;;16.28;98.21
16821;BME280;8527;49.740;6.604;2022-09-09T03:29:51;99180.06;;;16.28;98.13
16821;BME280;8527;49.740;6.604;2022-09-09T03:34:51;99179.63;;;16.31;98.22
16821;BME280;8527;49.740;6.604;2022-09-09T03:39:56;99175.69;;;16.34;97.46
16821;BME280;8527;49.740;6.604;2022-09-09T03:44:57;99175.69;;;16.34;98.06
16821;BME280;8527;49.740;6.604;2022-09-09T03:49:59;99177.72;;;16.39;97.43
16821;BME280;8527;49.740;6.604;2022-09-09T03:55:05;99180.13;;;16.40;97.28
16821;BME280;8527;49.740;6.604;2022-09-09T04:00:09;99179.34;;;16.40;97.16
16821;BME280;8527;49.740;6.604;2022-09-09T04:05:11;99174.19;;;16.38;97.22
16821;BME280;8527;49.740;6.604;2022-09-09T04:10:12;99184.91;;;16.38;96.48
16821;BME280;8527;49.740;6.604;2022-09-09T04:15:16;99182.22;;;16.38;97.03
16821;BME280;8527;49.740;6.604;2022-09-09T04:20:15;99181.63;;;16.36;96.94
16821;BME280;8527;49.740;6.604;2022-09-09T04:25:15;99180.22;;;16.34;96.66
16821;BME280;8527;49.740;6.604;2022-09-09T04:30:16;99178.13;;;16.36;96.06
16821;BME280;8527;49.740;6.604;2022-09-09T04:35:15;99183.72;;;16.34;96.26
16821;BME280;8527;49.740;6.604;2022-09-09T04:40:15;99187.13;;;16.41;95.67
16821;BME280;8527;49.740;6.604;2022-09-09T04:45:17;99186.97;;;16.36;95.91
16821;BME280;8527;49.740;6.604;2022-09-09T04:50:21;99187.66;;;16.31;96.07
16821;BME280;8527;49.740;6.604;2022-09-09T04:55:33;99198.13;;;16.33;95.19
16821;BME280;8527;49.740;6.604;2022-09-09T05:00:36;99203.81;;;16.18;95.93
16821;BME280;8527;49.740;6.604;2022-09-09T05:05:37;99207.34;;;16.19;95.82
16821;BME280;8527;49.740;6.604;2022-09-09T05:10:40;99207.94;;;16.21;95.04
16821;BME280;8527;49.740;6.604;2022-09-09T05:15:51;99208.72;;;16.21;95.14
16821;BME280;8527;49.740;6.604;2022-09-09T05:20:49;99212.56;;;16.32;95.63
16821;BME280;8527;49.740;6.604;2022-09-09T05:25:55;99226.53;;;16.34;95.25
16821;BME280;8527;49.740;6.604;2022-09-09T05:31:01;99217.94;;;16.32;95.18
16821;BME280;8527;49.740;6.604;2022-09-09T05:36:02;99219.91;;;16.37;95.72
16821;BME280;8527;49.740;6.604;2022-09-09T05:41:02;99216.28;;;16.31;95.33
16821;BME280;8527;49.740;6.604;2022-09-09T05:46:08;99218.91;;;16.38;94.80
16821;BME280;8527;49.740;6.604;2022-09-09T05:51:09;99215.13;;;16.45;94.33
16821;BME280;8527;49.740;6.604;2022-09-09T05:56:13;99224.19;;;16.44;93.96
16821;BME280;8527;49.740;6.604;2022-09-09T06:01:16;99216.91;;;16.52;94.44
16821;BME280;8527;49.740;6.604;2022-09-09T06:06:19;99221.59;;;16.56;94.71
16821;BME280;8527;49.740;6.604;2022-09-09T06:11:20;99228.66;;;16.51;94.67
16821;BME280;8527;49.740;6.604;2022-09-09T06:16:29;99228.44;;;16.52;94.29
16821;BME280;8527;49.740;6.604;2022-09-09T06:21:34;99230.28;;;16.52;94.32
16821;BME280;8527;49.740;6.604;2022-09-09T06:26:34;99227.03;;;16.50;93.26
16821;BME280;8527;49.740;6.604;2022-09-09T06:31:36;99223.22;;;16.57;93.63
16821;BME280;8527;49.740;6.604;2022-09-09T06:36:46;99221.25;;;16.71;93.08
16821;BME280;8527;49.740;6.604;2022-09-09T06:41:47;99228.31;;;16.84;92.02
16821;BME280;8527;49.740;6.604;2022-09-09T06:46:55;99231.28;;;16.95;90.95
16821;BME280;8527;49.740;6.604;2022-09-09T06:51:54;99234.88;;;16.88;90.78
16821;BME280;8527;49.740;6.604;2022-09-09T06:56:52;99229.66;;;17.12;90.96
16821;BME280;8527;49.740;6.604;2022-09-09T07:01:54;99241.28;;;17.25;88.86
16821;BME280;8527;49.740;6.604;2022-09-09T07:06:53;99243.38;;;17.23;89.23
16821;BME280;8527;49.740;6.604;2022-09-09T07:11:57;99246.13;;;17.16;88.76
16821;BME280;8527;49.740;6.604;2022-09-09T07:16:58;99246.97;;;17.17;88.22
16821;BME280;8527;49.740;6.604;2022-09-09T07:21:59;99247.09;;;17.22;88.11
16821;BME280;8527;49.740;6.604;2022-09-09T07:26:58;99251.03;;;17.38;87.00
16821;BME280;8527;49.740;6.604;2022-09-09T07:32:01;99251.22;;;17.85;85.82
16821;BME280;8527;49.740;6.604;2022-09-09T07:37:02;99251.06;;;17.80;84.57
16821;BME280;8527;49.740;6.604;2022-09-09T07:42:00;99253.91;;;17.55;83.98
16821;BME280;8527;49.740;6.604;2022-09-09T07:47:09;99257.47;;;17.49;83.93
16821;BME280;8527;49.740;6.604;2022-09-09T07:52:07;99261.03;;;17.61;83.74
16821;BME280;8527;49.740;6.604;2022-09-09T07:57:06;99268.47;;;17.78;82.85
16821;BME280;8527;49.740;6.604;2022-09-09T08:02:09;99261.84;;;18.23;81.93
16821;BME280;8527;49.740;6.604;2022-09-09T08:07:09;99259.47;;;18.14;81.45
16821;BME280;8527;49.740;6.604;2022-09-09T08:12:08;99261.94;;;18.16;80.46
16821;BME280;8527;49.740;6.604;2022-09-09T08:17:11;99260.69;;;18.00;81.65
16821;BME280;8527;49.740;6.604;2022-09-09T08:22:09;99254.97;;;17.96;81.02
16821;BME280;8527;49.740;6.604;2022-09-09T08:27:10;99250.75;;;18.00;80.63
16821;BME280;8527;49.740;6.604;2022-09-09T08:32:14;99259.47;;;18.03;82.79
16821;BME280;8527;49.740;6.604;2022-09-09T08:37:14;99265.56;;;18.34;83.03
16821;BME280;8527;49.740;6.604;2022-09-09T08:42:24;99263.91;;;18.09;82.73
16821;BME280;8527;49.740;6.604;2022-09-09T08:47:38;99273.47;;;17.74;87.28
16821;BME280;8527;49.740;6.604;2022-09-09T08:52:51;99277.16;;;17.42;92.83
16821;BME280;8527;49.740;6.604;2022-09-09T08:57:58;99276.97;;;17.25;92.85
16821;BME280;8527;49.740;6.604;2022-09-09T09:03:13;99287.25;;;17.10;92.79
16821;BME280;8527;49.740;6.604;2022-09-09T09:08:24;99284.41;;;17.05;96.06
16821;BME280;8527;49.740;6.604;2022-09-09T09:13:30;99282.59;;;17.17;94.42
16821;BME280;8527;49.740;6.604;2022-09-09T09:18:34;99281.13;;;17.70;92.98
16821;BME280;8527;49.740;6.604;2022-09-09T09:23:37;99278.31;;;17.65;91.34
16821;BME280;8527;49.740;6.604;2022-09-09T09:28:42;99277.03;;;17.68;89.47
16821;BME280;8527;49.740;6.604;2022-09-09T09:33:49;99271.16;;;17.59;90.70
16821;BME280;8527;49.740;6.604;2022-09-09T09:38:58;99277.47;;;17.53;91.26
16821;BME280;8527;49.740;6.604;2022-09-09T09:44:25;99273.06;;;17.40;91.44
16821;BME280;8527;49.740;6.604;2022-09-09T09:49:26;99270.00;;;17.55;89.19
16821;BME280;8527;49.740;6.604;2022-09-09T09:54:27;99278.59;;;18.06;89.47
16821;BME280;8527;49.740;6.604;2022-09-09T09:59:34;99266.84;;;18.31;84.90
16821;BME280;8527;49.740;6.604;2022-09-09T10:04:42;99265.09;;;18.96;85.95
16821;BME280;8527;49.740;6.604;2022-09-09T10:09:41;99252.25;;;19.39;82.07
16821;BME280;8527;49.740;6.604;2022-09-09T10:14:42;99256.59;;;19.00;79.88
16821;BME280;8527;49.740;6.604;2022-09-09T10:19:57;99257.28;;;18.83;80.48
16821;BME280;8527;49.740;6.604;2022-09-09T10:25:19;99253.66;;;19.01;79.26
16821;BME280;8527;49.740;6.604;2022-09-09T10:30:22;99251.31;;;19.46;77.96
16821;BME280;8527;49.740;6.604;2022-09-09T10:35:29;99255.19;;;19.96;77.03
16821;BME280;8527;49.740;6.604;2022-09-09T10:40:32;99235.81;;;20.28;72.88
16821;BME280;8527;49.740;6.604;2022-09-09T10:45:41;99247.78;;;20.03;73.29
16821;BME280;8527;49.740;6.604;2022-09-09T10:50:52;99247.66;;;19.81;72.62
16821;BME280;8527;49.740;6.604;2022-09-09T10:55:53;99232.88;;;19.66;72.94
16821;BME280;8527;49.740;6.604;2022-09-09T11:00:59;99230.41;;;20.11;73.86
16821;BME280;8527;49.740;6.604;2022-09-09T11:06:05;99234.34;;;20.20;70.82
16821;BME280;8527;49.740;6.604;2022-09-09T11:11:11;99233.84;;;20.06;69.21
16821;BME280;8527;49.740;6.604;2022-09-09T11:16:19;99217.16;;;19.75;69.97
16821;BME280;8527;49.740;6.604;2022-09-09T11:21:28;99225.97;;;19.88;70.73
16821;BME280;8527;49.740;6.604;2022-09-09T11:26:31;99216.81;;;20.57;70.38
16821;BME280;8527;49.740;6.604;2022-09-09T11:31:43;99209.25;;;20.76;67.56
16821;BME280;8527;49.740;6.604;2022-09-09T11:37:13;99210.50;;;20.69;68.41
16821;BME280;8527;49.740;6.604;2022-09-09T11:42:17;99212.03;;;20.42;68.40
16821;BME280;8527;49.740;6.604;2022-09-09T11:47:20;99234.72;;;20.46;69.01
16821;BME280;8527;49.740;6.604;2022-09-09T11:52:25;99218.00;;;20.27;69.41
16821;BME280;8527;49.740;6.604;2022-09-09T11:57:26;99211.44;;;20.57;69.21
16821;BME280;8527;49.740;6.604;2022-09-09T12:02:29;99212.28;;;20.80;69.26
16821;BME280;8527;49.740;6.604;2022-09-09T12:07:36;99216.94;;;20.85;69.91
16821;BME280;8527;49.740;6.604;2022-09-09T12:12:39;99219.31;;;21.03;70.13
16821;BME280;8527;49.740;6.604;2022-09-09T12:17:42;99215.56;;;21.04;68.99
16821;BME280;8527;49.740;6.604;2022-09-09T12:23:00;99206.09;;;21.24;68.94
16821;BME280;8527;49.740;6.604;2022-09-09T12:28:05;99216.78;;;21.41;68.33
16821;BME280;8527;49.740;6.604;2022-09-09T12:33:11;99204.47;;;21.23;67.92
16821;BME280;8527;49.740;6.604;2022-09-09T12:38:20;99201.13;;;21.16;69.20
16821;BME280;8527;49.740;6.604;2022-09-09T12:43:29;99195.25;;;21.46;67.70
16821;BME280;8527;49.740;6.604;2022-09-09T12:48:32;99195.72;;;21.38;67.78
16821;BME280;8527;49.740;6.604;2022-09-09T12:53:41;99170.75;;;21.81;67.44
16821;BME280;8527;49.740;6.604;2022-09-09T12:58:46;99180.78;;;21.85;63.89
16821;BME280;8527;49.740;6.604;2022-09-09T13:03:47;99161.03;;;21.80;63.60
16821;BME280;8527;49.740;6.604;2022-09-09T13:08:51;99170.19;;;22.16;61.29
16821;BME280;8527;49.740;6.604;2022-09-09T13:13:54;99166.94;;;22.14;59.96
16821;BME280;8527;49.740;6.604;2022-09-09T13:18:58;99153.13;;;22.11;59.20
16821;BME280;8527;49.740;6.604;2022-09-09T13:24:01;99155.81;;;22.05;59.66
16821;BME280;8527;49.740;6.604;2022-09-09T13:29:16;99140.84;;;22.30;60.67
16821;BME280;8527;49.740;6.604;2022-09-09T13:34:27;99160.91;;;22.40;60.18
16821;BME280;8527;49.740;6.604;2022-09-09T13:39:29;99168.91;;;22.24;59.20
16821;BME280;8527;49.740;6.604;2022-09-09T13:44:30;99166.81;;;21.94;60.01
16821;BME280;8527;49.740;6.604;2022-09-09T13:49:38;99179.16;;;21.57;59.97
16821;BME280;8527;49.740;6.604;2022-09-09T13:54:40;99170.25;;;21.29;61.04
16821;BME280;8527;49.740;6.604;2022-09-09T13:59:38;99186.28;;;21.13;61.21
16821;BME280;8527;49.740;6.604;2022-09-09T14:04:37;99240.16;;;20.69;71.18
16821;BME280;8527;49.740;6.604;2022-09-09T14:09:36;99256.84;;;19.39;79.92
16821;BME280;8527;49.740;6.604;2022-09-09T14:14:38;99256.47;;;18.59;84.59
16821;BME280;8527;49.740;6.604;2022-09-09T14:19:37;99267.47;;;18.33;86.51
16821;BME280;8527;49.740;6.604;2022-09-09T14:24:35;99271.28;;;18.25;86.93
16821;BME280;8527;49.740;6.604;2022-09-09T14:29:36;99263.13;;;18.56;84.37
16821;BME280;8527;49.740;6.604;2022-09-09T14:34:35;99269.47;;;18.07;87.42
16821;BME280;8527;49.740;6.604;2022-09-09T14:39:33;99259.94;;;18.11;87.17
16821;BME280;8527;49.740;6.604;2022-09-09T14:44:32;99248.41;;;18.23;86.33
16821;BME280;8527;49.740;6.604;2022-09-09T14:49:37;99252.47;;;18.25;86.95
16821;BME280;8527;49.740;6.604;2022-09-09T14:54:35;99255.31;;;18.54;84.55
16821;BME280;8527;49.740;6.604;2022-09-09T14:59:34;99251.44;;;18.50;88.36
16821;BME280;8527;49.740;6.604;2022-09-09T15:04:32;99241.75;;;18.37;86.56
16821;BME280;8527;49.740;6.604;2022-09-09T15:09:36;99241.41;;;18.34;88.22
16821;BME280;8527;49.740;6.604;2022-09-09T15:14:34;99246.53;;;18.47;87.99
16821;BME280;8527;49.740;6.604;2022-09-09T15:19:33;99248.19;;;18.48;88.59
16821;BME280;8527;49.740;6.604;2022-09-09T15:24:32;99245.84;;;18.40;85.63
16821;BME280;8527;49.740;6.604;2022-09-09T15:29:33;99248.88;;;18.55;85.95
16821;BME280;8527;49.740;6.604;2022-09-09T15:34:32;99234.88;;;18.41;86.69
16821;BME280;8527;49.740;6.604;2022-09-09T15:39:31;99225.28;;;18.34;87.65
16821;BME280;8527;49.740;6.604;2022-09-09T15:44:29;99218.75;;;18.30;91.25
16821;BME280;8527;49.740;6.604;2022-09-09T15:49:30;99237.13;;;18.02;90.18
16821;BME280;8527;49.740;6.604;2022-09-09T15:54:31;99229.25;;;17.77;93.25
16821;BME280;8527;49.740;6.604;2022-09-09T15:59:34;99237.31;;;17.46;97.63
16821;BME280;8527;49.740;6.604;2022-09-09T16:04:35;99272.72;;;17.18;100.00
16821;BME280;8527;49.740;6.604;2022-09-09T16:09:36;99263.06;;;16.91;97.77
16821;BME280;8527;49.740;6.604;2022-09-09T16:14:35;99258.81;;;17.09;97.24
16821;BME280;8527;49.740;6.604;2022-09-09T16:19:36;99268.16;;;17.18;100.00
16821;BME280;8527;49.740;6.604;2022-09-09T16:24:35;99280.06;;;17.04;100.00
16821;BME280;8527;49.740;6.604;2022-09-09T16:29:33;99285.72;;;16.95;100.00
16821;BME280;8527;49.740;6.604;2022-09-09T16:34:32;99273.38;;;17.13;100.00
16821;BME280;8527;49.740;6.604;2022-09-09T16:39:33;99264.09;;;17.15;100.00
16821;BME280;8527;49.740;6.604;2022-09-09T16:44:34;99259.41;;;17.11;100.00
16821;BME280;8527;49.740;6.604;2022-09-09T16:49:33;99271.00;;;17.23;98.79
16821;BME280;8527;49.740;6.604;2022-09-09T16:54:34;99264.88;;;17.16;99.07
16821;BME280;8527;49.740;6.604;2022-09-09T16:59:32;99277.25;;;17.17;100.00
16821;BME280;8527;49.740;6.604;2022-09-09T17:04:31;99286.59;;;16.89;100.00
16821;BME280;8527;49.740;6.604;2022-09-09T17:09:29;99286.75;;;16.94;97.43
16821;BME280;8527;49.740;6.604;2022-09-09T17:14:30;99310.53;;;17.09;97.72
16821;BME280;8527;49.740;6.604;2022-09-09T17:19:31;99310.59;;;17.02;98.94
16821;BME280;8527;49.740;6.604;2022-09-09T17:24:30;99319.09;;;16.99;100.00
16821;BME280;8527;49.740;6.604;2022-09-09T17:29:32;99314.31;;;17.01;100.00
16821;BME280;8527;49.740;6.604;2022-09-09T17:34:31;99328.34;;;16.78;100.00
16821;BME280;8527;49.740;6.604;2022-09-09T17:39:29;99331.00;;;16.78;100.00
16821;BME280;8527;49.740;6.604;2022-09-09T17:44:28;99331.50;;;16.68;100.00
16821;BME280;8527;49.740;6.604;2022-09-09T17:49:30;99340.75;;;16.72;100.00
16821;BME280;8527;49.740;6.604;2022-09-09T17:54:28;99352.31;;;16.66;100.00
16821;BME280;8527;49.740;6.604;2022-09-09T17:59:28;99356.69;;;16.60;100.00
16821;BME280;8527;49.740;6.604;2022-09-09T18:04:26;99358.63;;;16.53;100.00
16821;BME280;8527;49.740;6.604;2022-09-09T18:09:28;99356.97;;;16.52;100.00
16821;BME280;8527;49.740;6.604;2022-09-09T18:14:29;99362.97;;;16.48;100.00
16821;BME280;8527;49.740;6.604;2022-09-09T18:19:29;99363.19;;;16.46;100.00
16821;BME280;8527;49.740;6.604;2022-09-09T18:24:32;99356.25;;;16.38;100.00
16821;BME280;8527;49.740;6.604;2022-09-09T18:29:31;99360.22;;;16.29;100.00
16821;BME280;8527;49.740;6.604;2022-09-09T18:34:29;99362.28;;;16.27;100.00
16821;BME280;8527;49.740;6.604;2022-09-09T18:39:31;99363.56;;;16.24;100.00
16821;BME280;8527;49.740;6.604;2022-09-09T18:44:30;99384.22;;;16.10;100.00
16821;BME280;8527;49.740;6.604;2022-09-09T18:49:30;99380.56;;;15.98;100.00
16821;BME280;8527;49.740;6.604;2022-09-09T18:54:31;99384.72;;;15.87;100.00
16821;BME280;8527;49.740;6.604;2022-09-09T18:59:30;99386.78;;;15.78;100.00
16821;BME280;8527;49.740;6.604;2022-09-09T19:04:30;99391.56;;;15.69;100.00
16821;BME280;8527;49.740;6.604;2022-09-09T19:09:32;99394.22;;;15.69;100.00
16821;BME280;8527;49.740;6.604;2022-09-09T19:14:32;99385.56;;;15.74;100.00
16821;BME280;8527;49.740;6.604;2022-09-09T19:19:33;99387.88;;;15.57;100.00
16821;BME280;8527;49.740;6.604;2022-09-09T19:24:35;99389.97;;;15.55;100.00
16821;BME280;8527;49.740;6.604;2022-09-09T19:29:35;99387.94;;;15.43;100.00
16821;BME280;8527;49.740;6.604;2022-09-09T19:34:34;99406.66;;;15.43;100.00
16821;BME280;8527;49.740;6.604;2022-09-09T19:39:35;99402.75;;;15.46;100.00
16821;BME280;8527;49.740;6.604;2022-09-09T19:44:34;99404.19;;;15.49;100.00
16821;BME280;8527;49.740;6.604;2022-09-09T19:49:32;99407.25;;;15.39;100.00
16821;BME280;8527;49.740;6.604;2022-09-09T19:54:31;99404.81;;;15.37;100.00
16821;BME280;8527;49.740;6.604;2022-09-09T19:59:32;99416.31;;;15.31;100.00
16821;BME280;8527;49.740;6.604;2022-09-09T20:04:31;99424.53;;;15.29;100.00
16821;BME280;8527;49.740;6.604;2022-09-09T20:09:30;99418.59;;;15.27;100.00
16821;BME280;8527;49.740;6.604;2022-09-09T20:14:28;99421.25;;;15.27;100.00
16821;BME280;8527;49.740;6.604;2022-09-09T20:19:29;99420.47;;;15.27;100.00
16821;BME280;8527;49.740;6.604;2022-09-09T20:24:31;99423.94;;;15.27;100.00
16821;BME280;8527;49.740;6.604;2022-09-09T20:29:35;99422.72;;;15.23;100.00
16821;BME280;8527;49.740;6.604;2022-09-09T20:34:36;99428.06;;;15.23;100.00
16821;BME280;8527;49.740;6.604;2022-09-09T20:39:35;99441.22;;;15.18;100.00
16821;BME280;8527;49.740;6.604;2022-09-09T20:44:35;99423.13;;;15.20;100.00
16821;BME280;8527;49.740;6.604;2022-09-09T20:49:36;99430.13;;;15.28;100.00
16821;BME280;8527;49.740;6.604;2022-09-09T20:54:35;99420.47;;;15.27;100.00
16821;BME280;8527;49.740;6.604;2022-09-09T20:59:34;99425.38;;;15.30;100.00
16821;BME280;8527;49.740;6.604;2022-09-09T21:04:34;99426.00;;;15.32;100.00
16821;BME280;8527;49.740;6.604;2022-09-09T21:09:35;99428.88;;;15.30;100.00
16821;BME280;8527;49.740;6.604;2022-09-09T21:14:35;99422.28;;;15.33;100.00
16821;BME280;8527;49.740;6.604;2022-09-09T21:19:33;99419.84;;;15.31;100.00
16821;BME280;8527;49.740;6.604;2022-09-09T21:24:34;99422.31;;;15.19;100.00
16821;BME280;8527;49.740;6.604;2022-09-09T21:29:33;99424.56;;;15.16;100.00
16821;BME280;8527;49.740;6.604;2022-09-09T21:34:33;99422.91;;;15.15;100.00
16821;BME280;8527;49.740;6.604;2022-09-09T21:39:35;99422.94;;;15.08;100.00
16821;BME280;8527;49.740;6.604;2022-09-09T21:44:33;99421.50;;;15.05;100.00
16821;BME280;8527;49.740;6.604;2022-09-09T21:49:34;99411.44;;;15.01;100.00
16821;BME280;8527;49.740;6.604;2022-09-09T21:54:38;99411.44;;;14.94;100.00
16821;BME280;8527;49.740;6.604;2022-09-09T21:59:38;99406.09;;;14.81;100.00
16821;BME280;8527;49.740;6.604;2022-09-09T22:04:37;99408.75;;;14.74;100.00
16821;BME280;8527;49.740;6.604;2022-09-09T22:09:39;99416.31;;;14.63;100.00
16821;BME280;8527;49.740;6.604;2022-09-09T22:14:38;99420.41;;;14.59;100.00
16821;BME280;8527;49.740;6.604;2022-09-09T22:19:36;99418.75;;;14.52;100.00
16821;BME280;8527;49.740;6.604;2022-09-09T22:24:39;99423.28;;;14.51;100.00
16821;BME280;8527;49.740;6.604;2022-09-09T22:29:38;99427.78;;;14.51;100.00
16821;BME280;8527;49.740;6.604;2022-09-09T22:34:36;99422.84;;;14.41;100.00
16821;BME280;8527;49.740;6.604;2022-09-09T22:39:35;99419.16;;;14.42;100.00
16821;BME280;8527;49.740;6.604;2022-09-09T22:44:36;99413.00;;;14.41;100.00
16821;BME280;8527;49.740;6.604;2022-09-09T22:49:35;99417.31;;;14.42;100.00
16821;BME280;8527;49.740;6.604;2022-09-09T22:54:33;99425.69;;;14.32;100.00
16821;BME280;8527;49.740;6.604;2022-09-09T22:59:32;99420.97;;;14.34;100.00
16821;BME280;8527;49.740;6.604;2022-09-09T23:04:33;99419.13;;;14.35;100.00
16821;BME280;8527;49.740;6.604;2022-09-09T23:09:33;99417.09;;;14.44;100.00
16821;BME280;8527;49.740;6.604;2022-09-09T23:14:32;99409.50;;;14.41;100.00
16821;BME280;8527;49.740;6.604;2022-09-09T23:19:33;99416.50;;;14.48;100.00
16821;BME280;8527;49.740;6.604;2022-09-09T23:24:31;99411.75;;;14.51;100.00
16821;BME280;8527;49.740;6.604;2022-09-09T23:29:30;99415.69;;;14.55;100.00
16821;BME280;8527;49.740;6.604;2022-09-09T23:34:28;99419.59;;;14.59;100.00
16821;BME280;8527;49.740;6.604;2022-09-09T23:39:29;99429.06;;;14.68;100.00
16821;BME280;8527;49.740;6.604;2022-09-09T23:44:28;99434.78;;;14.65;100.00
16821;BME280;8527;49.740;6.604;2022-09-09T23:49:29;99432.75;;;14.67;100.00
16821;BME280;8527;49.740;6.604;2022-09-09T23:54:30;99432.34;;;14.70;100.00
16821;BME280;8527;49.740;6.604;2022-09-09T23:59:28;99434.00;;;14.71;100.00
